sensor_id;sensor_type;location;lat;lon;timestamp;pressure;altitude;pressure_sealevel;temperature;humidity
46394;BME280;32099;53.588;10.176;2023-05-08T00:00:34;102177.59;;;10.25;67.57
46394;BME280;32099;53.588;10.176;2023-05-08T00:02:59;102191.53;;;10.22;68.32
46394;BME280;32099;53.588;10.176;2023-05-08T00:05:24;102192.38;;;10.23;67.64
46394;BME280;32099;53.588;10.176;2023-05-08T00:07:49;102190.53;;;10.23;68.25
46394;BME280;32099;53.588;10.176;2023-05-08T00:10:16;102192.22;;;10.24;67.46
46394;BME280;32099;53.588;10.176;2023-05-08T00:12:41;102194.09;;;10.24;67.89
46394;BME280;32099;53.588;10.176;2023-05-08T00:15:07;102192.38;;;10.23;67.10
46394;BME280;32099;53.588;10.176;2023-05-08T00:17:32;102186.66;;;10.16;67.31
46394;BME280;32099;53.588;10.176;2023-05-08T00:19:58;102191.25;;;10.06;68.15
46394;BME280;32099;53.588;10.176;2023-05-08T00:22:23;102186.78;;;10.04;69.45
46394;BME280;32099;53.588;10.176;2023-05-08T00:24:48;102192.84;;;9.98;67.95
46394;BME280;32099;53.588;10.176;2023-05-08T00:27:14;102190.56;;;9.94;68.35
46394;BME280;32099;53.588;10.176;2023-05-08T00:29:39;102189.09;;;9.90;70.35
46394;BME280;32099;53.588;10.176;2023-05-08T00:32:05;102192.97;;;9.87;69.15
46394;BME280;32099;53.588;10.176;2023-05-08T00:34:31;102187.81;;;9.84;68.85
46394;BME280;32099;53.588;10.176;2023-05-08T00:36:56;102192.25;;;9.85;68.98
46394;BME280;32099;53.588;10.176;2023-05-08T00:39:22;102192.41;;;9.83;68.59
46394;BME280;32099;53.588;10.176;2023-05-08T00:41:47;102187.53;;;9.87;68.34
46394;BME280;32099;53.588;10.176;2023-05-08T00:44:12;102181.09;;;9.88;68.15
46394;BME280;32099;53.588;10.176;2023-05-08T00:46:38;102181.22;;;9.86;68.23
46394;BME280;32099;53.588;10.176;2023-05-08T00:49:04;102180.78;;;9.81;68.44
46394;BME280;32099;53.588;10.176;2023-05-08T00:51:30;102185.66;;;9.78;68.00
46394;BME280;32099;53.588;10.176;2023-05-08T00:53:57;102190.41;;;9.76;68.69
46394;BME280;32099;53.588;10.176;2023-05-08T00:56:23;102186.38;;;9.70;68.72
46394;BME280;32099;53.588;10.176;2023-05-08T00:58:49;102186.66;;;9.67;68.18
46394;BME280;32099;53.588;10.176;2023-05-08T01:01:15;102176.75;;;9.66;68.69
46394;BME280;32099;53.588;10.176;2023-05-08T01:03:41;102174.59;;;9.69;67.89
46394;BME280;32099;53.588;10.176;2023-05-08T01:06:07;102176.22;;;9.72;67.49
46394;BME280;32099;53.588;10.176;2023-05-08T01:08:33;102175.75;;;9.67;68.52
46394;BME280;32099;53.588;10.176;2023-05-08T01:16:51;102173.31;;;9.54;68.31
46394;BME280;32099;53.588;10.176;2023-05-08T01:19:39;102182.91;;;9.58;68.00
46394;BME280;32099;53.588;10.176;2023-05-08T01:34:12;102188.06;;;9.51;68.25
46394;BME280;32099;53.588;10.176;2023-05-08T01:42:24;102187.19;;;9.41;67.62
46394;BME280;32099;53.588;10.176;2023-05-08T01:45:04;102191.22;;;9.37;67.82
46394;BME280;32099;53.588;10.176;2023-05-08T01:47:42;102179.28;;;9.38;67.33
46394;BME280;32099;53.588;10.176;2023-05-08T01:50:13;102184.03;;;9.36;67.54
46394;BME280;32099;53.588;10.176;2023-05-08T01:52:45;102189.59;;;9.34;67.91
46394;BME280;32099;53.588;10.176;2023-05-08T01:55:17;102177.97;;;9.32;67.36
46394;BME280;32099;53.588;10.176;2023-05-08T01:57:48;102182.00;;;9.28;67.97
46394;BME280;32099;53.588;10.176;2023-05-08T02:00:18;102179.56;;;9.25;68.00
46394;BME280;32099;53.588;10.176;2023-05-08T02:02:45;102183.44;;;9.22;68.43
46394;BME280;32099;53.588;10.176;2023-05-08T02:05:12;102175.53;;;9.19;68.92
46394;BME280;32099;53.588;10.176;2023-05-08T02:07:39;102182.97;;;9.17;68.92
46394;BME280;32099;53.588;10.176;2023-05-08T02:10:05;102193.28;;;9.14;68.25
46394;BME280;32099;53.588;10.176;2023-05-08T02:12:32;102197.25;;;9.09;67.86
46394;BME280;32099;53.588;10.176;2023-05-08T02:14:59;102190.56;;;9.14;67.70
46394;BME280;32099;53.588;10.176;2023-05-08T02:17:25;102196.72;;;9.16;67.65
46394;BME280;32099;53.588;10.176;2023-05-08T02:19:53;102198.72;;;9.14;68.01
46394;BME280;32099;53.588;10.176;2023-05-08T02:22:20;102194.53;;;9.09;68.04
46394;BME280;32099;53.588;10.176;2023-05-08T02:24:48;102193.97;;;9.06;68.03
46394;BME280;32099;53.588;10.176;2023-05-08T02:27:17;102200.41;;;9.05;68.32
46394;BME280;32099;53.588;10.176;2023-05-08T02:29:44;102194.94;;;9.05;68.42
46394;BME280;32099;53.588;10.176;2023-05-08T02:32:10;102193.63;;;8.99;68.59
46394;BME280;32099;53.588;10.176;2023-05-08T02:34:37;102193.06;;;8.95;68.90
46394;BME280;32099;53.588;10.176;2023-05-08T02:37:03;102193.06;;;8.95;68.46
46394;BME280;32099;53.588;10.176;2023-05-08T02:39:29;102199.66;;;8.93;68.68
46394;BME280;32099;53.588;10.176;2023-05-08T02:41:57;102191.91;;;8.88;68.35
46394;BME280;32099;53.588;10.176;2023-05-08T02:44:23;102190.31;;;8.86;68.33
46394;BME280;32099;53.588;10.176;2023-05-08T02:49:36;102189.59;;;8.84;68.87
46394;BME280;32099;53.588;10.176;2023-05-08T02:52:12;102181.69;;;8.80;68.67
46394;BME280;32099;53.588;10.176;2023-05-08T02:54:49;102186.25;;;8.80;69.03
46394;BME280;32099;53.588;10.176;2023-05-08T02:57:41;102188.53;;;8.75;69.03
46394;BME280;32099;53.588;10.176;2023-05-08T03:00:19;102190.94;;;8.68;69.89
46394;BME280;32099;53.588;10.176;2023-05-08T03:05:17;102182.50;;;8.71;69.84
46394;BME280;32099;53.588;10.176;2023-05-08T03:07:49;102180.31;;;8.65;69.36
46394;BME280;32099;53.588;10.176;2023-05-08T03:10:16;102178.88;;;8.61;69.39
46394;BME280;32099;53.588;10.176;2023-05-08T03:12:46;102179.75;;;8.61;69.49
46394;BME280;32099;53.588;10.176;2023-05-08T03:15:17;102169.84;;;8.60;69.10
46394;BME280;32099;53.588;10.176;2023-05-08T03:17:47;102174.44;;;8.60;68.94
46394;BME280;32099;53.588;10.176;2023-05-08T03:20:21;102170.25;;;8.56;69.36
46394;BME280;32099;53.588;10.176;2023-05-08T03:22:49;102173.38;;;8.51;69.37
46394;BME280;32099;53.588;10.176;2023-05-08T03:25:16;102170.94;;;8.48;70.23
46394;BME280;32099;53.588;10.176;2023-05-08T03:27:44;102171.03;;;8.46;69.58
46394;BME280;32099;53.588;10.176;2023-05-08T03:30:10;102175.88;;;8.43;69.77
46394;BME280;32099;53.588;10.176;2023-05-08T03:32:36;102170.84;;;8.38;70.14
46394;BME280;32099;53.588;10.176;2023-05-08T03:35:03;102173.44;;;8.40;69.77
46394;BME280;32099;53.588;10.176;2023-05-08T03:37:30;102172.19;;;8.44;69.45
46394;BME280;32099;53.588;10.176;2023-05-08T03:39:55;102177.63;;;8.44;69.53
46394;BME280;32099;53.588;10.176;2023-05-08T03:42:22;102178.47;;;8.44;69.95
46394;BME280;32099;53.588;10.176;2023-05-08T03:44:51;102170.56;;;8.41;68.53
46394;BME280;32099;53.588;10.176;2023-05-08T03:47:17;102168.16;;;8.38;69.43
46394;BME280;32099;53.588;10.176;2023-05-08T03:49:44;102178.28;;;8.36;69.52
46394;BME280;32099;53.588;10.176;2023-05-08T03:52:11;102171.97;;;8.36;69.29
46394;BME280;32099;53.588;10.176;2023-05-08T03:54:37;102172.84;;;8.36;69.44
46394;BME280;32099;53.588;10.176;2023-05-08T03:57:02;102175.81;;;8.33;70.02
46394;BME280;32099;53.588;10.176;2023-05-08T03:59:41;102179.09;;;8.27;69.77
46394;BME280;32099;53.588;10.176;2023-05-08T04:02:24;102180.81;;;8.28;69.58
46394;BME280;32099;53.588;10.176;2023-05-08T04:05:12;102175.50;;;8.26;69.56
46394;BME280;32099;53.588;10.176;2023-05-08T04:07:46;102174.75;;;8.24;70.13
46394;BME280;32099;53.588;10.176;2023-05-08T04:10:19;102180.06;;;8.26;70.11
46394;BME280;32099;53.588;10.176;2023-05-08T04:13:14;102168.63;;;8.22;69.82
46394;BME280;32099;53.588;10.176;2023-05-08T04:15:49;102174.16;;;8.21;69.92
46394;BME280;32099;53.588;10.176;2023-05-08T04:18:17;102171.44;;;8.21;70.96
46394;BME280;32099;53.588;10.176;2023-05-08T04:20:48;102167.75;;;8.22;69.77
46394;BME280;32099;53.588;10.176;2023-05-08T04:23:17;102175.75;;;8.23;69.70
46394;BME280;32099;53.588;10.176;2023-05-08T04:25:44;102173.31;;;8.20;70.58
46394;BME280;32099;53.588;10.176;2023-05-08T04:28:12;102170.59;;;8.20;70.22
46394;BME280;32099;53.588;10.176;2023-05-08T04:30:38;102174.06;;;8.22;70.98
46394;BME280;32099;53.588;10.176;2023-05-08T04:33:04;102172.91;;;8.25;70.78
46394;BME280;32099;53.588;10.176;2023-05-08T04:35:30;102174.63;;;8.26;70.45
46394;BME280;32099;53.588;10.176;2023-05-08T04:37:57;102170.19;;;8.25;71.09
46394;BME280;32099;53.588;10.176;2023-05-08T04:40:22;102170.94;;;8.27;70.15
46394;BME280;32099;53.588;10.176;2023-05-08T04:42:48;102170.78;;;8.28;70.89
46394;BME280;32099;53.588;10.176;2023-05-08T04:45:13;102162.88;;;8.25;70.65
46394;BME280;32099;53.588;10.176;2023-05-08T04:47:38;102174.09;;;8.32;70.19
46394;BME280;32099;53.588;10.176;2023-05-08T04:50:04;102181.13;;;8.34;71.03
46394;BME280;32099;53.588;10.176;2023-05-08T04:52:29;102184.31;;;8.40;70.17
46394;BME280;32099;53.588;10.176;2023-05-08T04:54:55;102180.19;;;8.45;70.40
46394;BME280;32099;53.588;10.176;2023-05-08T04:57:20;102176.63;;;8.45;70.80
46394;BME280;32099;53.588;10.176;2023-05-08T04:59:45;102184.63;;;8.46;70.23
46394;BME280;32099;53.588;10.176;2023-05-08T05:02:10;102181.69;;;8.49;70.62
46394;BME280;32099;53.588;10.176;2023-05-08T05:04:36;102186.84;;;8.53;70.31
46394;BME280;32099;53.588;10.176;2023-05-08T05:07:02;102180.00;;;8.58;70.20
46394;BME280;32099;53.588;10.176;2023-05-08T05:09:27;102183.34;;;8.62;69.99
46394;BME280;32099;53.588;10.176;2023-05-08T05:11:53;102174.75;;;8.67;69.86
46394;BME280;32099;53.588;10.176;2023-05-08T05:14:18;102181.53;;;8.72;69.45
46394;BME280;32099;53.588;10.176;2023-05-08T05:16:44;102179.50;;;8.74;69.51
46394;BME280;32099;53.588;10.176;2023-05-08T05:19:09;102186.41;;;8.78;69.91
46394;BME280;32099;53.588;10.176;2023-05-08T05:21:34;102182.44;;;8.83;68.57
46394;BME280;32099;53.588;10.176;2023-05-08T05:24:01;102193.16;;;8.84;69.61
46394;BME280;32099;53.588;10.176;2023-05-08T05:26:27;102189.28;;;8.87;69.67
46394;BME280;32099;53.588;10.176;2023-05-08T05:28:52;102183.75;;;8.88;69.47
46394;BME280;32099;53.588;10.176;2023-05-08T05:31:18;102191.03;;;8.88;69.02
46394;BME280;32099;53.588;10.176;2023-05-08T05:33:43;102186.19;;;8.91;69.52
46394;BME280;32099;53.588;10.176;2023-05-08T05:36:08;102192.06;;;8.97;69.43
46394;BME280;32099;53.588;10.176;2023-05-08T05:38:34;102193.22;;;9.04;68.88
46394;BME280;32099;53.588;10.176;2023-05-08T05:40:59;102191.97;;;9.08;69.36
46394;BME280;32099;53.588;10.176;2023-05-08T05:43:24;102205.41;;;9.09;69.05
46394;BME280;32099;53.588;10.176;2023-05-08T05:45:49;102194.16;;;9.14;68.71
46394;BME280;32099;53.588;10.176;2023-05-08T05:48:15;102193.59;;;9.20;68.81
46394;BME280;32099;53.588;10.176;2023-05-08T05:50:40;102191.31;;;9.25;68.33
46394;BME280;32099;53.588;10.176;2023-05-08T05:53:06;102203.09;;;9.36;68.27
46394;BME280;32099;53.588;10.176;2023-05-08T05:55:31;102198.66;;;9.45;68.43
46394;BME280;32099;53.588;10.176;2023-05-08T05:57:56;102202.09;;;9.47;67.70
46394;BME280;32099;53.588;10.176;2023-05-08T06:00:22;102207.44;;;9.48;67.43
46394;BME280;32099;53.588;10.176;2023-05-08T06:02:47;102207.13;;;9.51;67.60
46394;BME280;32099;53.588;10.176;2023-05-08T06:05:12;102210.28;;;9.56;67.42
46394;BME280;32099;53.588;10.176;2023-05-08T06:07:38;102203.00;;;9.67;67.58
46394;BME280;32099;53.588;10.176;2023-05-08T06:10:03;102201.56;;;9.72;67.06
46394;BME280;32099;53.588;10.176;2023-05-08T06:12:29;102203.88;;;9.87;66.77
46394;BME280;32099;53.588;10.176;2023-05-08T06:14:55;102195.69;;;9.97;66.87
46394;BME280;32099;53.588;10.176;2023-05-08T06:17:20;102202.00;;;10.07;66.58
46394;BME280;32099;53.588;10.176;2023-05-08T06:19:47;102195.69;;;10.16;66.76
46394;BME280;32099;53.588;10.176;2023-05-08T06:22:14;102195.94;;;10.33;66.07
46394;BME280;32099;53.588;10.176;2023-05-08T06:24:43;102197.09;;;10.50;65.78
46394;BME280;32099;53.588;10.176;2023-05-08T06:27:08;102193.34;;;10.61;65.02
46394;BME280;32099;53.588;10.176;2023-05-08T06:29:34;102194.06;;;10.63;65.32
46394;BME280;32099;53.588;10.176;2023-05-08T06:31:59;102195.03;;;10.72;65.07
46394;BME280;32099;53.588;10.176;2023-05-08T06:34:25;102191.72;;;10.78;64.54
46394;BME280;32099;53.588;10.176;2023-05-08T06:36:50;102188.25;;;10.86;64.17
46394;BME280;32099;53.588;10.176;2023-05-08T06:39:15;102189.81;;;10.88;64.35
46394;BME280;32099;53.588;10.176;2023-05-08T06:41:41;102196.63;;;11.02;65.86
46394;BME280;32099;53.588;10.176;2023-05-08T06:44:06;102192.50;;;11.26;64.93
46394;BME280;32099;53.588;10.176;2023-05-08T06:46:31;102195.44;;;11.42;63.44
46394;BME280;32099;53.588;10.176;2023-05-08T06:48:57;102192.94;;;11.49;63.85
46394;BME280;32099;53.588;10.176;2023-05-08T06:51:22;102187.09;;;11.62;62.43
46394;BME280;32099;53.588;10.176;2023-05-08T06:53:47;102192.97;;;11.67;63.02
46394;BME280;32099;53.588;10.176;2023-05-08T06:56:12;102189.91;;;11.70;63.04
46394;BME280;32099;53.588;10.176;2023-05-08T06:58:38;102188.81;;;11.81;63.20
46394;BME280;32099;53.588;10.176;2023-05-08T07:01:03;102194.53;;;11.88;62.39
46394;BME280;32099;53.588;10.176;2023-05-08T07:03:28;102181.41;;;11.92;62.72
46394;BME280;32099;53.588;10.176;2023-05-08T07:05:54;102191.47;;;12.09;63.82
46394;BME280;32099;53.588;10.176;2023-05-08T07:08:19;102181.63;;;12.34;62.10
46394;BME280;32099;53.588;10.176;2023-05-08T07:10:45;102177.25;;;12.50;61.08
46394;BME280;32099;53.588;10.176;2023-05-08T07:13:10;102185.75;;;12.65;60.89
46394;BME280;32099;53.588;10.176;2023-05-08T07:15:35;102183.78;;;12.84;60.93
46394;BME280;32099;53.588;10.176;2023-05-08T07:18:02;102189.72;;;13.05;59.85
46394;BME280;32099;53.588;10.176;2023-05-08T07:20:28;102190.44;;;13.16;58.41
46394;BME280;32099;53.588;10.176;2023-05-08T07:22:53;102182.72;;;13.11;59.21
46394;BME280;32099;53.588;10.176;2023-05-08T07:25:18;102183.75;;;13.10;59.30
46394;BME280;32099;53.588;10.176;2023-05-08T07:27:44;102186.19;;;13.21;60.33
46394;BME280;32099;53.588;10.176;2023-05-08T07:30:09;102187.50;;;13.44;59.29
46394;BME280;32099;53.588;10.176;2023-05-08T07:32:35;102189.41;;;13.51;59.03
46394;BME280;32099;53.588;10.176;2023-05-08T07:35:00;102181.34;;;13.58;57.56
46394;BME280;32099;53.588;10.176;2023-05-08T07:37:26;102167.84;;;13.73;58.28
46394;BME280;32099;53.588;10.176;2023-05-08T07:39:53;102168.22;;;13.95;58.94
46394;BME280;32099;53.588;10.176;2023-05-08T07:42:18;102169.41;;;14.09;58.04
46394;BME280;32099;53.588;10.176;2023-05-08T07:44:45;102168.22;;;14.19;58.90
46394;BME280;32099;53.588;10.176;2023-05-08T07:47:10;102165.59;;;14.43;58.26
46394;BME280;32099;53.588;10.176;2023-05-08T07:49:36;102168.63;;;14.64;55.84
46394;BME280;32099;53.588;10.176;2023-05-08T07:52:01;102170.50;;;14.89;57.90
46394;BME280;32099;53.588;10.176;2023-05-08T07:54:26;102169.75;;;15.35;56.50
46394;BME280;32099;53.588;10.176;2023-05-08T07:56:52;102179.13;;;15.49;54.85
46394;BME280;32099;53.588;10.176;2023-05-08T07:59:17;102175.13;;;15.28;54.55
46394;BME280;32099;53.588;10.176;2023-05-08T08:01:42;102166.56;;;15.23;55.27
46394;BME280;32099;53.588;10.176;2023-05-08T08:04:11;102166.41;;;15.48;55.05
46394;BME280;32099;53.588;10.176;2023-05-08T08:06:37;102165.03;;;15.52;55.40
46394;BME280;32099;53.588;10.176;2023-05-08T08:09:02;102171.88;;;15.56;53.32
46394;BME280;32099;53.588;10.176;2023-05-08T08:11:27;102169.69;;;15.43;53.58
46394;BME280;32099;53.588;10.176;2023-05-08T08:13:53;102175.25;;;15.35;53.95
46394;BME280;32099;53.588;10.176;2023-05-08T08:16:18;102170.03;;;15.48;54.86
46394;BME280;32099;53.588;10.176;2023-05-08T08:18:43;102180.19;;;15.71;54.46
46394;BME280;32099;53.588;10.176;2023-05-08T08:21:08;102176.91;;;15.76;53.90
46394;BME280;32099;53.588;10.176;2023-05-08T08:23:34;102180.69;;;15.74;54.17
46394;BME280;32099;53.588;10.176;2023-05-08T08:25:59;102175.47;;;15.56;54.29
46394;BME280;32099;53.588;10.176;2023-05-08T08:28:24;102184.63;;;15.49;54.17
46394;BME280;32099;53.588;10.176;2023-05-08T08:30:50;102180.03;;;15.41;54.24
46394;BME280;32099;53.588;10.176;2023-05-08T08:33:15;102170.03;;;15.48;54.38
46394;BME280;32099;53.588;10.176;2023-05-08T08:35:40;102176.97;;;15.91;52.83
46394;BME280;32099;53.588;10.176;2023-05-08T08:38:06;102162.47;;;16.20;51.89
46394;BME280;32099;53.588;10.176;2023-05-08T08:40:31;102166.34;;;16.11;53.04
46394;BME280;32099;53.588;10.176;2023-05-08T08:42:56;102164.81;;;15.85;52.60
46394;BME280;32099;53.588;10.176;2023-05-08T08:45:22;102162.38;;;15.90;52.45
46394;BME280;32099;53.588;10.176;2023-05-08T08:47:48;102157.13;;;16.03;54.11
46394;BME280;32099;53.588;10.176;2023-05-08T08:50:16;102157.28;;;16.40;52.95
46394;BME280;32099;53.588;10.176;2023-05-08T08:52:59;102164.03;;;16.68;51.56
46394;BME280;32099;53.588;10.176;2023-05-08T08:55:31;102160.34;;;16.90;51.41
46394;BME280;32099;53.588;10.176;2023-05-08T08:58:01;102152.53;;;17.24;52.06
46394;BME280;32099;53.588;10.176;2023-05-08T09:00:35;102158.53;;;17.27;49.38
46394;BME280;32099;53.588;10.176;2023-05-08T09:03:01;102153.13;;;17.04;51.39
46394;BME280;32099;53.588;10.176;2023-05-08T09:05:30;102154.84;;;17.05;50.23
46394;BME280;32099;53.588;10.176;2023-05-08T09:07:55;102151.63;;;17.02;51.89
46394;BME280;32099;53.588;10.176;2023-05-08T09:10:22;102152.09;;;17.05;49.69
46394;BME280;32099;53.588;10.176;2023-05-08T09:12:48;102146.88;;;17.10;51.00
46394;BME280;32099;53.588;10.176;2023-05-08T09:15:13;102148.06;;;16.93;50.00
46394;BME280;32099;53.588;10.176;2023-05-08T09:17:39;102152.94;;;16.91;50.64
46394;BME280;32099;53.588;10.176;2023-05-08T09:20:04;102146.94;;;17.17;50.80
46394;BME280;32099;53.588;10.176;2023-05-08T09:22:31;102151.72;;;17.67;50.77
46394;BME280;32099;53.588;10.176;2023-05-08T09:24:59;102145.06;;;17.98;47.87
46394;BME280;32099;53.588;10.176;2023-05-08T09:27:28;102142.44;;;18.11;49.70
46394;BME280;32099;53.588;10.176;2023-05-08T09:30:04;102158.56;;;18.43;48.62
46394;BME280;32099;53.588;10.176;2023-05-08T09:32:31;102150.72;;;18.46;47.45
46394;BME280;32099;53.588;10.176;2023-05-08T09:34:59;102146.25;;;18.39;49.23
46394;BME280;32099;53.588;10.176;2023-05-08T09:37:26;102141.25;;;18.56;47.74
46394;BME280;32099;53.588;10.176;2023-05-08T09:39:52;102145.13;;;18.61;47.39
46394;BME280;32099;53.588;10.176;2023-05-08T09:42:18;102139.03;;;18.73;48.68
46394;BME280;32099;53.588;10.176;2023-05-08T09:44:45;102141.34;;;19.11;45.55
46394;BME280;32099;53.588;10.176;2023-05-08T09:47:15;102142.28;;;19.32;46.86
46394;BME280;32099;53.588;10.176;2023-05-08T09:50:00;102137.53;;;19.12;46.33
46394;BME280;32099;53.588;10.176;2023-05-08T09:52:26;102134.28;;;19.02;47.06
46394;BME280;32099;53.588;10.176;2023-05-08T09:54:56;102141.75;;;19.01;45.77
46394;BME280;32099;53.588;10.176;2023-05-08T09:57:26;102138.06;;;18.94;46.64
46394;BME280;32099;53.588;10.176;2023-05-08T09:59:59;102138.13;;;19.01;46.42
46394;BME280;32099;53.588;10.176;2023-05-08T10:02:31;102132.25;;;19.17;47.39
46394;BME280;32099;53.588;10.176;2023-05-08T10:04:57;102132.47;;;19.29;47.75
46394;BME280;32099;53.588;10.176;2023-05-08T10:07:26;102139.56;;;19.52;48.23
46394;BME280;32099;53.588;10.176;2023-05-08T10:10:04;102137.91;;;19.71;46.41
46394;BME280;32099;53.588;10.176;2023-05-08T10:12:31;102135.09;;;19.57;45.73
46394;BME280;32099;53.588;10.176;2023-05-08T10:14:57;102129.53;;;19.31;46.57
46394;BME280;32099;53.588;10.176;2023-05-08T10:17:29;102139.41;;;19.05;48.63
46394;BME280;32099;53.588;10.176;2023-05-08T10:20:17;102132.66;;;18.79;47.66
46394;BME280;32099;53.588;10.176;2023-05-08T10:22:44;102119.81;;;18.58;48.10
46394;BME280;32099;53.588;10.176;2023-05-08T10:25:14;102124.03;;;18.54;49.77
46394;BME280;32099;53.588;10.176;2023-05-08T10:27:46;102123.03;;;18.61;48.32
46394;BME280;32099;53.588;10.176;2023-05-08T10:30:16;102116.66;;;18.68;47.32
46394;BME280;32099;53.588;10.176;2023-05-08T10:32:48;102125.28;;;18.51;48.04
46394;BME280;32099;53.588;10.176;2023-05-08T10:35:16;102116.66;;;18.32;48.23
46394;BME280;32099;53.588;10.176;2023-05-08T10:37:42;102123.69;;;18.07;48.39
46394;BME280;32099;53.588;10.176;2023-05-08T10:40:10;102121.53;;;18.02;49.33
46394;BME280;32099;53.588;10.176;2023-05-08T10:42:37;102116.50;;;17.91;47.52
46394;BME280;32099;53.588;10.176;2023-05-08T10:45:05;102104.38;;;17.63;47.17
46394;BME280;32099;53.588;10.176;2023-05-08T10:55:32;102091.19;;;18.37;47.79
46394;BME280;32099;53.588;10.176;2023-05-08T10:58:04;102084.50;;;18.53;47.22
46394;BME280;32099;53.588;10.176;2023-05-08T11:03:25;102095.56;;;18.95;44.17
46394;BME280;32099;53.588;10.176;2023-05-08T11:05:52;102092.81;;;18.95;44.13
46394;BME280;32099;53.588;10.176;2023-05-08T11:08:22;102088.50;;;18.92;44.96
46394;BME280;32099;53.588;10.176;2023-05-08T11:13:33;102088.81;;;18.62;46.52
46394;BME280;32099;53.588;10.176;2023-05-08T11:15:59;102096.19;;;18.55;46.08
46394;BME280;32099;53.588;10.176;2023-05-08T11:18:25;102092.03;;;18.66;46.64
46394;BME280;32099;53.588;10.176;2023-05-08T11:20:56;102082.75;;;18.87;45.38
46394;BME280;32099;53.588;10.176;2023-05-08T11:23:30;102088.41;;;19.14;44.33
46394;BME280;32099;53.588;10.176;2023-05-08T11:26:00;102083.97;;;19.26;44.50
46394;BME280;32099;53.588;10.176;2023-05-08T11:28:31;102079.16;;;19.49;42.62
46394;BME280;32099;53.588;10.176;2023-05-08T11:31:01;102080.00;;;19.76;41.71
46394;BME280;32099;53.588;10.176;2023-05-08T11:33:28;102078.34;;;19.95;43.04
46394;BME280;32099;53.588;10.176;2023-05-08T11:35:56;102075.13;;;20.18;39.49
46394;BME280;32099;53.588;10.176;2023-05-08T11:38:33;102071.06;;;20.08;39.91
46394;BME280;32099;53.588;10.176;2023-05-08T11:46:00;102074.28;;;20.11;40.87
46394;BME280;32099;53.588;10.176;2023-05-08T11:48:46;102068.09;;;20.09;42.05
46394;BME280;32099;53.588;10.176;2023-05-08T11:51:11;102057.84;;;20.23;42.28
46394;BME280;32099;53.588;10.176;2023-05-08T11:53:41;102067.03;;;20.24;38.37
46394;BME280;32099;53.588;10.176;2023-05-08T11:56:07;102070.44;;;20.12;38.38
46394;BME280;32099;53.588;10.176;2023-05-08T11:58:33;102064.03;;;20.12;41.10
46394;BME280;32099;53.588;10.176;2023-05-08T12:00:58;102051.06;;;20.12;41.10
46394;BME280;32099;53.588;10.176;2023-05-08T12:03:24;102053.38;;;20.22;41.53
46394;BME280;32099;53.588;10.176;2023-05-08T12:05:49;102053.97;;;20.44;40.32
46394;BME280;32099;53.588;10.176;2023-05-08T12:08:17;102060.72;;;20.62;37.59
46394;BME280;32099;53.588;10.176;2023-05-08T12:15:50;102047.22;;;20.86;41.84
46394;BME280;32099;53.588;10.176;2023-05-08T12:18:20;102059.94;;;21.00;40.53
46394;BME280;32099;53.588;10.176;2023-05-08T12:23:21;102053.69;;;21.11;38.11
46394;BME280;32099;53.588;10.176;2023-05-08T12:25:46;102057.97;;;21.07;40.33
46394;BME280;32099;53.588;10.176;2023-05-08T12:28:11;102053.69;;;21.11;40.66
46394;BME280;32099;53.588;10.176;2023-05-08T12:30:37;102047.22;;;21.24;39.44
46394;BME280;32099;53.588;10.176;2023-05-08T12:33:02;102044.22;;;21.26;40.64
46394;BME280;32099;53.588;10.176;2023-05-08T12:35:28;102050.50;;;21.15;39.23
46394;BME280;32099;53.588;10.176;2023-05-08T12:37:59;102040.03;;;21.17;40.30
46394;BME280;32099;53.588;10.176;2023-05-08T12:40:27;102036.03;;;21.38;37.99
46394;BME280;32099;53.588;10.176;2023-05-08T12:42:55;102051.13;;;21.49;37.19
46394;BME280;32099;53.588;10.176;2023-05-08T12:45:24;102042.09;;;21.28;35.96
46394;BME280;32099;53.588;10.176;2023-05-08T12:48:00;102049.41;;;21.16;36.47
46394;BME280;32099;53.588;10.176;2023-05-08T12:50:36;102040.16;;;20.96;36.52
46394;BME280;32099;53.588;10.176;2023-05-08T12:53:03;102039.28;;;20.96;39.42
46394;BME280;32099;53.588;10.176;2023-05-08T12:55:31;102038.78;;;21.13;38.16
46394;BME280;32099;53.588;10.176;2023-05-08T12:57:58;102040.94;;;21.36;38.55
46394;BME280;32099;53.588;10.176;2023-05-08T13:00:44;102040.69;;;21.44;38.31
46394;BME280;32099;53.588;10.176;2023-05-08T13:03:27;102040.41;;;21.59;36.26
46394;BME280;32099;53.588;10.176;2023-05-08T13:05:54;102029.78;;;21.75;38.50
46394;BME280;32099;53.588;10.176;2023-05-08T13:08:27;102033.50;;;21.87;35.61
46394;BME280;32099;53.588;10.176;2023-05-08T13:10:57;102025.56;;;22.16;39.34
46394;BME280;32099;53.588;10.176;2023-05-08T13:13:23;102025.94;;;22.75;38.44
46394;BME280;32099;53.588;10.176;2023-05-08T13:15:50;102021.78;;;23.81;33.06
46394;BME280;32099;53.588;10.176;2023-05-08T13:18:16;102025.56;;;25.04;32.91
46394;BME280;32099;53.588;10.176;2023-05-08T13:20:42;102021.97;;;26.68;31.46
46394;BME280;32099;53.588;10.176;2023-05-08T13:23:07;102009.84;;;28.68;27.67
46394;BME280;32099;53.588;10.176;2023-05-08T13:25:34;102025.03;;;30.37;24.98
46394;BME280;32099;53.588;10.176;2023-05-08T13:28:00;102022.22;;;30.32;24.40
46394;BME280;32099;53.588;10.176;2023-05-08T13:30:26;102008.72;;;28.69;25.25
46394;BME280;32099;53.588;10.176;2023-05-08T13:32:52;102014.69;;;26.89;26.80
46394;BME280;32099;53.588;10.176;2023-05-08T13:35:18;102025.16;;;25.59;30.71
46394;BME280;32099;53.588;10.176;2023-05-08T13:37:43;102017.19;;;24.75;32.82
46394;BME280;32099;53.588;10.176;2023-05-08T13:40:09;102013.63;;;24.39;31.14
46394;BME280;32099;53.588;10.176;2023-05-08T13:42:35;102010.28;;;24.66;33.22